sensor_id;sensor_type;location;lat;lon;timestamp;pressure;altitude;pressure_sealevel;temperature;humidity
42601;BME280;28229;48.856;9.088;2023-08-24T00:01:01;98150.28;;;20.04;77.47
42601;BME280;28229;48.856;9.088;2023-08-24T00:03:27;98151.63;;;20.01;77.76
42601;BME280;28229;48.856;9.088;2023-08-24T00:05:54;98148.19;;;19.95;77.41
42601;BME280;28229;48.856;9.088;2023-08-24T00:08:20;98153.53;;;19.95;77.61
42601;BME280;28229;48.856;9.088;2023-08-24T00:10:46;98149.03;;;19.86;78.03
42601;BME280;28229;48.856;9.088;2023-08-24T00:13:13;98144.47;;;19.91;77.83
42601;BME280;28229;48.856;9.088;2023-08-24T00:15:40;98147.94;;;19.92;77.84
42601;BME280;28229;48.856;9.088;2023-08-24T00:18:06;98148.78;;;19.82;77.82
42601;BME280;28229;48.856;9.088;2023-08-24T00:20:33;98153.03;;;19.78;78.18
42601;BME280;28229;48.856;9.088;2023-08-24T00:22:59;98148.53;;;19.73;78.34
42601;BME280;28229;48.856;9.088;2023-08-24T00:25:28;98143.16;;;19.68;78.78
42601;BME280;28229;48.856;9.088;2023-08-24T00:27:54;98131.69;;;19.68;78.68
42601;BME280;28229;48.856;9.088;2023-08-24T00:30:21;98126.91;;;19.70;78.50
42601;BME280;28229;48.856;9.088;2023-08-24T00:32:47;98131.41;;;19.69;78.87
42601;BME280;28229;48.856;9.088;2023-08-24T00:35:13;98121.25;;;19.71;79.21
42601;BME280;28229;48.856;9.088;2023-08-24T00:37:39;98125.81;;;19.71;78.89
42601;BME280;28229;48.856;9.088;2023-08-24T00:40:06;98120.72;;;19.69;78.95
42601;BME280;28229;48.856;9.088;2023-08-24T00:42:40;98121.03;;;19.63;78.90
42601;BME280;28229;48.856;9.088;2023-08-24T00:45:08;98117.03;;;19.65;78.88
42601;BME280;28229;48.856;9.088;2023-08-24T00:47:40;98116.75;;;19.62;78.79
42601;BME280;28229;48.856;9.088;2023-08-24T00:50:07;98115.19;;;19.55;79.94
42601;BME280;28229;48.856;9.088;2023-08-24T00:52:36;98119.44;;;19.56;79.58
42601;BME280;28229;48.856;9.088;2023-08-24T00:55:04;98111.19;;;19.53;79.49
42601;BME280;28229;48.856;9.088;2023-08-24T00:57:31;98103.19;;;19.53;79.82
42601;BME280;28229;48.856;9.088;2023-08-24T01:00:03;98094.13;;;19.49;79.76
42601;BME280;28229;48.856;9.088;2023-08-24T01:02:32;98086.91;;;19.49;79.88
42601;BME280;28229;48.856;9.088;2023-08-24T01:04:58;98090.38;;;19.50;79.94
42601;BME280;28229;48.856;9.088;2023-08-24T01:07:25;98082.41;;;19.39;80.28
42601;BME280;28229;48.856;9.088;2023-08-24T01:09:52;98087.19;;;19.43;80.17
42601;BME280;28229;48.856;9.088;2023-08-24T01:12:52;98088.53;;;19.40;80.64
42601;BME280;28229;48.856;9.088;2023-08-24T01:18:10;98090.69;;;19.38;80.99
42601;BME280;28229;48.856;9.088;2023-08-24T01:20:40;98086.69;;;19.35;81.18
42601;BME280;28229;48.856;9.088;2023-08-24T01:23:23;98079.75;;;19.29;80.64
42601;BME280;28229;48.856;9.088;2023-08-24T01:26:02;98084.59;;;19.17;80.86
42601;BME280;28229;48.856;9.088;2023-08-24T01:28:30;98077.13;;;19.19;81.02
42601;BME280;28229;48.856;9.088;2023-08-24T01:30:57;98082.44;;;19.19;81.17
42601;BME280;28229;48.856;9.088;2023-08-24T01:33:24;98085.38;;;19.17;81.36
42601;BME280;28229;48.856;9.088;2023-08-24T01:35:53;98082.72;;;19.23;81.01
42601;BME280;28229;48.856;9.088;2023-08-24T01:38:19;98086.41;;;19.27;81.62
42601;BME280;28229;48.856;9.088;2023-08-24T01:43:34;98089.66;;;19.18;81.79
42601;BME280;28229;48.856;9.088;2023-08-24T01:46:07;98092.59;;;19.17;81.74
42601;BME280;28229;48.856;9.088;2023-08-24T01:48:33;98084.59;;;19.22;81.53
42601;BME280;28229;48.856;9.088;2023-08-24T01:51:01;98087.78;;;19.09;81.92
42601;BME280;28229;48.856;9.088;2023-08-24T01:53:31;98088.88;;;19.13;81.04
42601;BME280;28229;48.856;9.088;2023-08-24T01:55:59;98092.34;;;18.98;82.51
42601;BME280;28229;48.856;9.088;2023-08-24T01:58:25;98103.56;;;18.95;82.79
42601;BME280;28229;48.856;9.088;2023-08-24T02:00:52;98101.69;;;19.00;82.67
42601;BME280;28229;48.856;9.088;2023-08-24T02:03:18;98098.75;;;18.92;82.30
42601;BME280;28229;48.856;9.088;2023-08-24T02:05:44;98093.69;;;18.85;82.67
42601;BME280;28229;48.856;9.088;2023-08-24T02:08:10;98098.19;;;18.74;83.59
42601;BME280;28229;48.856;9.088;2023-08-24T02:10:36;98095.25;;;18.76;83.66
42601;BME280;28229;48.856;9.088;2023-08-24T02:13:04;98092.31;;;18.67;83.64
42601;BME280;28229;48.856;9.088;2023-08-24T02:15:30;98094.72;;;18.69;83.86
42601;BME280;28229;48.856;9.088;2023-08-24T02:17:56;98085.38;;;18.45;85.69
42601;BME280;28229;48.856;9.088;2023-08-24T02:20:22;98085.09;;;18.47;85.98
42601;BME280;28229;48.856;9.088;2023-08-24T02:22:48;98093.34;;;18.35;86.67
42601;BME280;28229;48.856;9.088;2023-08-24T02:25:15;98090.44;;;18.42;86.40
42601;BME280;28229;48.856;9.088;2023-08-24T02:27:41;98090.44;;;18.42;86.55
42601;BME280;28229;48.856;9.088;2023-08-24T02:30:07;98077.63;;;18.44;87.04
42601;BME280;28229;48.856;9.088;2023-08-24T02:32:33;98080.03;;;18.45;87.13
42601;BME280;28229;48.856;9.088;2023-08-24T02:34:59;98082.69;;;18.35;86.85
42601;BME280;28229;48.856;9.088;2023-08-24T02:37:26;98081.34;;;18.33;87.30
42601;BME280;28229;48.856;9.088;2023-08-24T02:39:52;98085.63;;;18.39;86.59
42601;BME280;28229;48.856;9.088;2023-08-24T02:42:18;98087.22;;;18.35;87.16
42601;BME280;28229;48.856;9.088;2023-08-24T02:44:44;98082.69;;;18.35;87.52
42601;BME280;28229;48.856;9.088;2023-08-24T02:47:11;98073.38;;;18.38;87.53
42601;BME280;28229;48.856;9.088;2023-08-24T02:49:37;98084.03;;;18.38;87.09
42601;BME280;28229;48.856;9.088;2023-08-24T02:52:04;98081.63;;;18.31;87.39
42601;BME280;28229;48.856;9.088;2023-08-24T02:54:30;98075.75;;;18.29;88.21
42601;BME280;28229;48.856;9.088;2023-08-24T02:56:56;98089.88;;;18.35;87.91
42601;BME280;28229;48.856;9.088;2023-08-24T02:59:23;98083.22;;;18.37;87.00
42601;BME280;28229;48.856;9.088;2023-08-24T03:01:49;98082.41;;;18.32;87.83
42601;BME280;28229;48.856;9.088;2023-08-24T03:04:15;98071.78;;;18.37;87.68
42601;BME280;28229;48.856;9.088;2023-08-24T03:06:43;98072.28;;;18.29;88.33
42601;BME280;28229;48.856;9.088;2023-08-24T03:09:09;98079.22;;;18.30;88.49
42601;BME280;28229;48.856;9.088;2023-08-24T03:11:36;98068.03;;;18.27;88.94
42601;BME280;28229;48.856;9.088;2023-08-24T03:14:02;98057.66;;;18.26;88.81
42601;BME280;28229;48.856;9.088;2023-08-24T03:16:28;98066.41;;;18.26;89.31
42601;BME280;28229;48.856;9.088;2023-08-24T03:18:54;98058.44;;;18.32;88.88
42601;BME280;28229;48.856;9.088;2023-08-24T03:21:21;98068.81;;;18.28;88.26
42601;BME280;28229;48.856;9.088;2023-08-24T03:23:47;98065.38;;;18.33;87.97
42601;BME280;28229;48.856;9.088;2023-08-24T03:26:13;98064.56;;;18.32;87.89
42601;BME280;28229;48.856;9.088;2023-08-24T03:28:39;98069.63;;;18.29;87.70
42601;BME280;28229;48.856;9.088;2023-08-24T03:31:06;98058.41;;;18.21;88.05
42601;BME280;28229;48.856;9.088;2023-08-24T03:33:35;98043.00;;;18.18;88.71
42601;BME280;28229;48.856;9.088;2023-08-24T03:36:01;98032.34;;;18.13;89.04
42601;BME280;28229;48.856;9.088;2023-08-24T03:38:29;98033.13;;;18.14;88.70
42601;BME280;28229;48.856;9.088;2023-08-24T03:41:03;98035.78;;;18.14;89.11
42601;BME280;28229;48.856;9.088;2023-08-24T03:43:34;98031.00;;;18.21;89.16
42601;BME280;28229;48.856;9.088;2023-08-24T03:46:01;98036.59;;;18.30;88.98
42601;BME280;28229;48.856;9.088;2023-08-24T03:48:27;98035.56;;;18.31;88.50
42601;BME280;28229;48.856;9.088;2023-08-24T03:50:54;98027.00;;;18.29;89.11
42601;BME280;28229;48.856;9.088;2023-08-24T03:53:22;98016.91;;;18.31;88.78
42601;BME280;28229;48.856;9.088;2023-08-24T03:55:50;98020.09;;;18.33;87.94
42601;BME280;28229;48.856;9.088;2023-08-24T03:58:19;98009.69;;;18.21;88.12
42601;BME280;28229;48.856;9.088;2023-08-24T04:00:45;98013.16;;;18.26;87.98
42601;BME280;28229;48.856;9.088;2023-08-24T04:03:12;98006.25;;;18.25;88.54
42601;BME280;28229;48.856;9.088;2023-08-24T04:05:38;97999.84;;;18.26;88.63
42601;BME280;28229;48.856;9.088;2023-08-24T04:08:05;97999.34;;;18.35;88.40
42601;BME280;28229;48.856;9.088;2023-08-24T04:10:31;98006.78;;;18.43;87.72
42601;BME280;28229;48.856;9.088;2023-08-24T04:12:58;98001.44;;;18.43;88.55
42601;BME280;28229;48.856;9.088;2023-08-24T04:15:25;97995.34;;;18.53;87.45
42601;BME280;28229;48.856;9.088;2023-08-24T04:17:51;98011.31;;;18.53;88.01
42601;BME280;28229;48.856;9.088;2023-08-24T04:20:17;97997.72;;;18.49;88.28
42601;BME280;28229;48.856;9.088;2023-08-24T04:22:44;98008.66;;;18.48;88.13
42601;BME280;28229;48.856;9.088;2023-08-24T04:25:10;97991.34;;;18.45;87.94
42601;BME280;28229;48.856;9.088;2023-08-24T04:27:38;97994.25;;;18.59;88.38
42601;BME280;28229;48.856;9.088;2023-08-24T04:30:04;97997.22;;;18.57;88.32
42601;BME280;28229;48.856;9.088;2023-08-24T04:32:34;97989.75;;;18.54;88.13
42601;BME280;28229;48.856;9.088;2023-08-24T04:35:00;97992.94;;;18.61;88.21
42601;BME280;28229;48.856;9.088;2023-08-24T04:37:26;97994.78;;;18.71;87.40
42601;BME280;28229;48.856;9.088;2023-08-24T04:40:05;97986.78;;;18.71;88.23
42601;BME280;28229;48.856;9.088;2023-08-24T04:42:33;97987.03;;;18.70;88.59
42601;BME280;28229;48.856;9.088;2023-08-24T04:45:00;97978.25;;;18.69;88.47
42601;BME280;28229;48.856;9.088;2023-08-24T04:47:26;97977.22;;;18.65;88.90
42601;BME280;28229;48.856;9.088;2023-08-24T04:49:52;97975.84;;;18.68;88.03
42601;BME280;28229;48.856;9.088;2023-08-24T04:52:18;97979.06;;;18.70;88.15
42601;BME280;28229;48.856;9.088;2023-08-24T04:54:44;97983.31;;;18.65;88.50
42601;BME280;28229;48.856;9.088;2023-08-24T04:57:10;97984.94;;;18.67;88.81
42601;BME280;28229;48.856;9.088;2023-08-24T04:59:39;97985.47;;;18.63;88.38
42601;BME280;28229;48.856;9.088;2023-08-24T05:02:06;97991.88;;;18.57;89.04
42601;BME280;28229;48.856;9.088;2023-08-24T05:04:32;97982.28;;;18.56;89.08
42601;BME280;28229;48.856;9.088;2023-08-24T05:06:58;97981.19;;;18.62;88.77
42601;BME280;28229;48.856;9.088;2023-08-24T05:09:24;97977.22;;;18.65;88.73
42601;BME280;28229;48.856;9.088;2023-08-24T05:11:50;97974.28;;;18.67;89.30
42601;BME280;28229;48.856;9.088;2023-08-24T05:14:16;97965.47;;;18.71;88.70
42601;BME280;28229;48.856;9.088;2023-08-24T05:16:43;97963.63;;;18.72;88.88
42601;BME280;28229;48.856;9.088;2023-08-24T05:19:09;97955.88;;;18.86;88.02
42601;BME280;28229;48.856;9.088;2023-08-24T05:21:35;97956.13;;;18.89;88.00
42601;BME280;28229;48.856;9.088;2023-08-24T05:24:01;97952.66;;;18.94;88.42
42601;BME280;28229;48.856;9.088;2023-08-24T05:26:27;97945.97;;;19.01;88.43
42601;BME280;28229;48.856;9.088;2023-08-24T05:28:53;97955.53;;;19.13;87.54
42601;BME280;28229;48.856;9.088;2023-08-24T05:31:20;97953.94;;;19.12;87.81
42601;BME280;28229;48.856;9.088;2023-08-24T05:33:46;97944.56;;;19.19;87.40
42601;BME280;28229;48.856;9.088;2023-08-24T05:36:12;97944.81;;;19.23;87.03
42601;BME280;28229;48.856;9.088;2023-08-24T05:38:38;97941.34;;;19.23;87.41
42601;BME280;28229;48.856;9.088;2023-08-24T05:41:04;97942.13;;;19.28;87.22
42601;BME280;28229;48.856;9.088;2023-08-24T05:43:30;97938.66;;;19.33;87.33
42601;BME280;28229;48.856;9.088;2023-08-24T05:45:56;97935.69;;;19.39;86.90
42601;BME280;28229;48.856;9.088;2023-08-24T05:48:23;97941.53;;;19.47;86.39
42601;BME280;28229;48.856;9.088;2023-08-24T05:50:49;97941.19;;;19.53;86.34
42601;BME280;28229;48.856;9.088;2023-08-24T05:53:15;97936.34;;;19.66;85.81
42601;BME280;28229;48.856;9.088;2023-08-24T05:55:41;97945.16;;;19.66;85.59
42601;BME280;28229;48.856;9.088;2023-08-24T05:58:08;97941.91;;;19.74;85.88
42601;BME280;28229;48.856;9.088;2023-08-24T06:00:34;97948.81;;;19.86;85.01
42601;BME280;28229;48.856;9.088;2023-08-24T06:03:00;97949.81;;;19.95;84.81
42601;BME280;28229;48.856;9.088;2023-08-24T06:05:26;97942.78;;;20.04;84.59
42601;BME280;28229;48.856;9.088;2023-08-24T06:07:53;97947.59;;;20.07;82.48
42601;BME280;28229;48.856;9.088;2023-08-24T06:10:19;97958.72;;;20.20;82.51
42601;BME280;28229;48.856;9.088;2023-08-24T06:12:46;97958.59;;;20.30;82.55
42601;BME280;28229;48.856;9.088;2023-08-24T06:15:12;97945.69;;;20.42;81.73
42601;BME280;28229;48.856;9.088;2023-08-24T06:17:39;97953.56;;;20.58;81.27
42601;BME280;28229;48.856;9.088;2023-08-24T06:20:06;97955.13;;;20.64;81.38
42601;BME280;28229;48.856;9.088;2023-08-24T06:22:36;97958.81;;;20.73;82.27
42601;BME280;28229;48.856;9.088;2023-08-24T06:25:02;97970.19;;;20.84;83.44
42601;BME280;28229;48.856;9.088;2023-08-24T06:27:32;97971.53;;;20.81;83.97
42601;BME280;28229;48.856;9.088;2023-08-24T06:29:58;97981.16;;;20.82;83.18
42601;BME280;28229;48.856;9.088;2023-08-24T06:32:24;97986.09;;;20.70;84.25
42601;BME280;28229;48.856;9.088;2023-08-24T06:35:01;98002.69;;;20.67;84.74
42601;BME280;28229;48.856;9.088;2023-08-24T06:37:27;98013.16;;;20.63;83.64
42601;BME280;28229;48.856;9.088;2023-08-24T06:39:53;98016.09;;;20.57;83.04
42601;BME280;28229;48.856;9.088;2023-08-24T06:42:19;98026.28;;;20.54;80.90
42601;BME280;28229;48.856;9.088;2023-08-24T06:44:49;98041.75;;;20.58;80.74
42601;BME280;28229;48.856;9.088;2023-08-24T06:47:18;98048.69;;;20.59;80.99
42601;BME280;28229;48.856;9.088;2023-08-24T06:49:44;98059.38;;;20.59;81.18
42601;BME280;28229;48.856;9.088;2023-08-24T06:52:11;98067.66;;;20.62;81.90
42601;BME280;28229;48.856;9.088;2023-08-24T06:54:37;98058.53;;;20.68;82.14
42601;BME280;28229;48.856;9.088;2023-08-24T06:57:03;98042.75;;;20.72;82.24
42601;BME280;28229;48.856;9.088;2023-08-24T06:59:30;98039.94;;;20.87;82.09
42601;BME280;28229;48.856;9.088;2023-08-24T07:01:56;98037.19;;;20.92;81.47
42601;BME280;28229;48.856;9.088;2023-08-24T07:04:25;98023.72;;;21.03;80.63
42601;BME280;28229;48.856;9.088;2023-08-24T07:06:51;98008.88;;;21.16;80.12
42601;BME280;28229;48.856;9.088;2023-08-24T07:09:19;97988.31;;;21.16;79.26
42601;BME280;28229;48.856;9.088;2023-08-24T07:11:45;97981.22;;;21.25;79.44
42601;BME280;28229;48.856;9.088;2023-08-24T07:14:11;97984.25;;;21.43;78.63
42601;BME280;28229;48.856;9.088;2023-08-24T07:16:37;97985.78;;;21.49;77.18
42601;BME280;28229;48.856;9.088;2023-08-24T07:19:03;97988.84;;;21.61;77.09
42601;BME280;28229;48.856;9.088;2023-08-24T07:21:31;97994.28;;;21.75;76.34
42601;BME280;28229;48.856;9.088;2023-08-24T07:23:57;97993.63;;;21.83;74.61
42601;BME280;28229;48.856;9.088;2023-08-24T07:26:23;97996.53;;;21.87;74.50
42601;BME280;28229;48.856;9.088;2023-08-24T07:28:51;97998.06;;;21.93;74.91
42601;BME280;28229;48.856;9.088;2023-08-24T07:31:17;97998.06;;;21.93;75.18
42601;BME280;28229;48.856;9.088;2023-08-24T07:33:44;98004.91;;;21.99;75.91
42601;BME280;28229;48.856;9.088;2023-08-24T07:36:10;98008.63;;;22.03;75.86
42601;BME280;28229;48.856;9.088;2023-08-24T07:38:37;98007.97;;;22.12;75.36
42601;BME280;28229;48.856;9.088;2023-08-24T07:41:03;97997.84;;;22.28;74.66
42601;BME280;28229;48.856;9.088;2023-08-24T07:43:29;97996.13;;;22.51;73.83
42601;BME280;28229;48.856;9.088;2023-08-24T07:45:56;97986.44;;;22.69;72.20
42601;BME280;28229;48.856;9.088;2023-08-24T07:48:22;97986.97;;;22.85;71.10
42601;BME280;28229;48.856;9.088;2023-08-24T07:50:48;97984.59;;;22.97;70.37
42601;BME280;28229;48.856;9.088;2023-08-24T07:53:15;97983.72;;;23.15;68.75
42601;BME280;28229;48.856;9.088;2023-08-24T07:55:42;97992.16;;;23.36;68.20
42601;BME280;28229;48.856;9.088;2023-08-24T07:58:08;97998.75;;;23.44;67.22
42601;BME280;28229;48.856;9.088;2023-08-24T08:00:35;98007.09;;;23.56;66.51
42601;BME280;28229;48.856;9.088;2023-08-24T08:03:01;98006.44;;;23.73;66.76
42601;BME280;28229;48.856;9.088;2023-08-24T08:05:27;98007.44;;;23.91;66.22
42601;BME280;28229;48.856;9.088;2023-08-24T08:07:55;98001.72;;;24.07;64.74
42601;BME280;28229;48.856;9.088;2023-08-24T08:10:22;98007.06;;;24.21;64.44
42601;BME280;28229;48.856;9.088;2023-08-24T08:12:48;98005.88;;;24.36;62.76
42601;BME280;28229;48.856;9.088;2023-08-24T08:15:14;97997.34;;;24.56;62.39
42601;BME280;28229;48.856;9.088;2023-08-24T08:17:40;97993.19;;;24.73;61.13
42601;BME280;28229;48.856;9.088;2023-08-24T08:20:08;97998.50;;;24.95;60.17
42601;BME280;28229;48.856;9.088;2023-08-24T08:22:36;97987.94;;;25.07;58.60
42601;BME280;28229;48.856;9.088;2023-08-24T08:25:06;97983.44;;;25.25;58.41
42601;BME280;28229;48.856;9.088;2023-08-24T08:27:32;97994.59;;;25.50;57.59
42601;BME280;28229;48.856;9.088;2023-08-24T08:29:59;98001.63;;;25.69;56.91
42601;BME280;28229;48.856;9.088;2023-08-24T08:32:25;97996.56;;;25.93;55.33
42601;BME280;28229;48.856;9.088;2023-08-24T08:34:56;97999.59;;;26.09;55.81
42601;BME280;28229;48.856;9.088;2023-08-24T08:37:27;97998.00;;;26.17;54.88
42601;BME280;28229;48.856;9.088;2023-08-24T08:39:53;98002.13;;;26.32;54.93
42601;BME280;28229;48.856;9.088;2023-08-24T08:42:20;98000.19;;;26.50;55.24
42601;BME280;28229;48.856;9.088;2023-08-24T08:44:46;98001.94;;;26.63;54.95
42601;BME280;28229;48.856;9.088;2023-08-24T08:47:13;97996.16;;;26.82;53.72
42601;BME280;28229;48.856;9.088;2023-08-24T08:49:43;97997.34;;;27.02;53.17
42601;BME280;28229;48.856;9.088;2023-08-24T08:52:11;98000.13;;;27.23;52.61
42601;BME280;28229;48.856;9.088;2023-08-24T08:54:38;97994.06;;;27.35;51.74
42601;BME280;28229;48.856;9.088;2023-08-24T08:57:04;98002.78;;;27.41;51.54
42601;BME280;28229;48.856;9.088;2023-08-24T08:59:31;97997.28;;;27.58;51.45
42601;BME280;28229;48.856;9.088;2023-08-24T09:01:58;97993.69;;;27.66;50.67
42601;BME280;28229;48.856;9.088;2023-08-24T09:04:28;97985.28;;;27.89;49.91
42601;BME280;28229;48.856;9.088;2023-08-24T09:06:56;97986.09;;;28.10;50.13
42601;BME280;28229;48.856;9.088;2023-08-24T09:09:22;97981.44;;;28.32;49.57
42601;BME280;28229;48.856;9.088;2023-08-24T09:11:51;97975.19;;;28.53;48.47
42601;BME280;28229;48.856;9.088;2023-08-24T09:14:17;97969.38;;;28.63;48.54
42601;BME280;28229;48.856;9.088;2023-08-24T09:16:43;97962.63;;;28.69;47.68
42601;BME280;28229;48.856;9.088;2023-08-24T09:19:11;97971.00;;;28.89;47.38
42601;BME280;28229;48.856;9.088;2023-08-24T09:21:38;97962.88;;;29.01;47.55
42601;BME280;28229;48.856;9.088;2023-08-24T09:24:06;97955.19;;;29.03;46.94
42601;BME280;28229;48.856;9.088;2023-08-24T09:26:34;97950.44;;;29.12;45.94
42601;BME280;28229;48.856;9.088;2023-08-24T09:29:11;97929.94;;;29.23;46.25
42601;BME280;28229;48.856;9.088;2023-08-24T09:31:41;97931.72;;;29.44;45.62
42601;BME280;28229;48.856;9.088;2023-08-24T09:34:10;97932.34;;;29.66;44.64
42601;BME280;28229;48.856;9.088;2023-08-24T09:36:37;97923.53;;;29.69;44.94
42601;BME280;28229;48.856;9.088;2023-08-24T09:39:04;97930.00;;;29.92;44.80
42601;BME280;28229;48.856;9.088;2023-08-24T09:41:45;97920.66;;;30.18;43.88
42601;BME280;28229;48.856;9.088;2023-08-24T09:44:12;97915.72;;;30.36;43.76
42601;BME280;28229;48.856;9.088;2023-08-24T09:46:39;97913.72;;;30.49;43.20
42601;BME280;28229;48.856;9.088;2023-08-24T09:49:08;97898.28;;;30.69;41.83
42601;BME280;28229;48.856;9.088;2023-08-24T09:51:35;97888.75;;;30.75;42.22
42601;BME280;28229;48.856;9.088;2023-08-24T09:54:05;97880.41;;;30.84;42.46
42601;BME280;28229;48.856;9.088;2023-08-24T09:56:36;97872.31;;;31.03;41.86
42601;BME280;28229;48.856;9.088;2023-08-24T09:59:11;97859.94;;;31.22;40.25
42601;BME280;28229;48.856;9.088;2023-08-24T10:01:45;97859.97;;;31.41;41.28
42601;BME280;28229;48.856;9.088;2023-08-24T10:04:23;97851.75;;;31.57;40.55
42601;BME280;28229;48.856;9.088;2023-08-24T10:06:59;97852.03;;;31.72;39.48
42601;BME280;28229;48.856;9.088;2023-08-24T10:09:35;97848.47;;;31.91;39.66
42601;BME280;28229;48.856;9.088;2023-08-24T10:12:04;97843.38;;;32.09;40.05
42601;BME280;28229;48.856;9.088;2023-08-24T10:14:53;97841.28;;;31.79;38.53
42601;BME280;28229;48.856;9.088;2023-08-24T10:17:22;97839.78;;;31.81;39.75
42601;BME280;28229;48.856;9.088;2023-08-24T10:19:51;97835.69;;;32.11;39.48
42601;BME280;28229;48.856;9.088;2023-08-24T10:22:19;97832.19;;;32.37;38.90
42601;BME280;28229;48.856;9.088;2023-08-24T10:24:47;97827.97;;;32.62;38.25
42601;BME280;28229;48.856;9.088;2023-08-24T10:27:14;97819.06;;;32.66;37.66
42601;BME280;28229;48.856;9.088;2023-08-24T10:29:40;97815.81;;;32.83;37.89
42601;BME280;28229;48.856;9.088;2023-08-24T10:32:07;97820.00;;;33.04;37.81
42601;BME280;28229;48.856;9.088;2023-08-24T10:34:34;97819.66;;;33.09;37.80
42601;BME280;28229;48.856;9.088;2023-08-24T10:37:11;97816.41;;;33.26;38.71
42601;BME280;28229;48.856;9.088;2023-08-24T10:39:44;97813.47;;;33.12;37.85
42601;BME280;28229;48.856;9.088;2023-08-24T10:42:12;97808.81;;;33.43;37.99
42601;BME280;28229;48.856;9.088;2023-08-24T10:44:43;97806.84;;;33.73;37.95
42601;BME280;28229;48.856;9.088;2023-08-24T10:47:14;97791.84;;;33.60;37.38
42601;BME280;28229;48.856;9.088;2023-08-24T10:55:03;97764.78;;;33.74;37.06
42601;BME280;28229;48.856;9.088;2023-08-24T10:57:36;97775.75;;;33.82;36.87
42601;BME280;28229;48.856;9.088;2023-08-24T11:00:09;97770.41;;;33.96;36.58
42601;BME280;28229;48.856;9.088;2023-08-24T11:05:16;97766.56;;;34.04;37.34
42601;BME280;28229;48.856;9.088;2023-08-24T11:07:50;97765.56;;;34.20;37.14
42601;BME280;28229;48.856;9.088;2023-08-24T11:10:17;97758.56;;;34.26;36.44
42601;BME280;28229;48.856;9.088;2023-08-24T11:15:33;97756.72;;;34.37;36.11
42601;BME280;28229;48.856;9.088;2023-08-24T11:20:50;97748.03;;;34.24;36.90
42601;BME280;28229;48.856;9.088;2023-08-24T11:23:18;97756.03;;;34.55;36.82
42601;BME280;28229;48.856;9.088;2023-08-24T11:25:46;97737.84;;;34.77;36.10
42601;BME280;28229;48.856;9.088;2023-08-24T11:28:19;97737.63;;;35.14;36.52
42601;BME280;28229;48.856;9.088;2023-08-24T11:30:46;97732.13;;;35.07;36.10
42601;BME280;28229;48.856;9.088;2023-08-24T11:33:13;97728.22;;;35.15;35.76
42601;BME280;28229;48.856;9.088;2023-08-24T11:35:42;97726.38;;;35.44;35.87
42601;BME280;28229;48.856;9.088;2023-08-24T11:38:09;97719.75;;;35.53;35.12
42601;BME280;28229;48.856;9.088;2023-08-24T11:40:35;97716.63;;;35.58;35.07
42601;BME280;28229;48.856;9.088;2023-08-24T11:43:02;97713.50;;;35.45;34.91
42601;BME280;28229;48.856;9.088;2023-08-24T11:45:32;97718.94;;;35.31;35.59
42601;BME280;28229;48.856;9.088;2023-08-24T11:47:59;97706.88;;;35.57;36.32
42601;BME280;28229;48.856;9.088;2023-08-24T11:50:31;97711.19;;;35.79;35.54
42601;BME280;28229;48.856;9.088;2023-08-24T11:52:58;97704.94;;;35.93;34.83
42601;BME280;28229;48.856;9.088;2023-08-24T11:55:27;97710.03;;;35.91;34.77
42601;BME280;28229;48.856;9.088;2023-08-24T11:57:53;97703.41;;;35.92;34.96
42601;BME280;28229;48.856;9.088;2023-08-24T12:00:20;97709.63;;;36.18;34.56
42601;BME280;28229;48.856;9.088;2023-08-24T12:02:48;97702.97;;;36.40;34.48
42601;BME280;28229;48.856;9.088;2023-08-24T12:05:25;97697.44;;;36.55;34.30
42601;BME280;28229;48.856;9.088;2023-08-24T12:07:53;97693.94;;;36.51;34.25
42601;BME280;28229;48.856;9.088;2023-08-24T12:10:20;97697.00;;;36.74;34.23
42601;BME280;28229;48.856;9.088;2023-08-24T12:12:47;97692.19;;;36.96;33.89
42601;BME280;28229;48.856;9.088;2023-08-24T12:15:19;97689.78;;;37.17;32.95
42601;BME280;28229;48.856;9.088;2023-08-24T12:17:47;97676.75;;;37.35;32.88
42601;BME280;28229;48.856;9.088;2023-08-24T12:20:23;97663.66;;;37.53;32.78
42601;BME280;28229;48.856;9.088;2023-08-24T12:22:54;97658.16;;;37.53;32.72
42601;BME280;28229;48.856;9.088;2023-08-24T12:25:22;97659.84;;;37.40;32.65
42601;BME280;28229;48.856;9.088;2023-08-24T12:28:07;97652.91;;;37.25;32.45
42601;BME280;28229;48.856;9.088;2023-08-24T12:30:51;97644.69;;;37.21;32.83
42601;BME280;28229;48.856;9.088;2023-08-24T12:33:25;97633.78;;;37.10;33.26
42601;BME280;28229;48.856;9.088;2023-08-24T12:35:52;97619.16;;;36.54;33.49
42601;BME280;28229;48.856;9.088;2023-08-24T12:38:19;97617.91;;;36.76;33.79
42601;BME280;28229;48.856;9.088;2023-08-24T12:40:45;97611.84;;;37.10;33.60
42601;BME280;28229;48.856;9.088;2023-08-24T12:43:12;97600.06;;;37.17;32.55
42601;BME280;28229;48.856;9.088;2023-08-24T12:45:39;97599.50;;;37.40;32.86
42601;BME280;28229;48.856;9.088;2023-08-24T12:48:05;97601.47;;;37.36;32.54
42601;BME280;28229;48.856;9.088;2023-08-24T12:50:34;97588.59;;;37.33;32.20
42601;BME280;28229;48.856;9.088;2023-08-24T12:53:00;97596.66;;;37.51;32.35
42601;BME280;28229;48.856;9.088;2023-08-24T12:55:27;97589.13;;;37.59;31.94
42601;BME280;28229;48.856;9.088;2023-08-24T12:57:53;97594.59;;;37.13;31.84
42601;BME280;28229;48.856;9.088;2023-08-24T13:00:19;97587.09;;;37.21;31.99
42601;BME280;28229;48.856;9.088;2023-08-24T13:02:46;97576.31;;;36.92;31.25
42601;BME280;28229;48.856;9.088;2023-08-24T13:05:12;97578.66;;;36.94;31.58
42601;BME280;28229;48.856;9.088;2023-08-24T13:07:39;97578.81;;;36.65;32.09
42601;BME280;28229;48.856;9.088;2023-08-24T13:10:05;97569.22;;;36.14;32.76
42601;BME280;28229;48.856;9.088;2023-08-24T13:12:33;97561.06;;;35.92;33.41
42601;BME280;28229;48.856;9.088;2023-08-24T13:15:00;97569.59;;;36.19;33.51
42601;BME280;28229;48.856;9.088;2023-08-24T13:17:27;97570.38;;;36.09;32.72
42601;BME280;28229;48.856;9.088;2023-08-24T13:19:53;97561.47;;;35.83;33.39
42601;BME280;28229;48.856;9.088;2023-08-24T13:22:19;97557.06;;;36.15;33.76